Time;durP1;ratioP1;P1;durP2;ratioP2;P2;SDS_P1;SDS_P2;PMS_P1;PMS_P2;Temp;Humidity;BMP_temperature;BMP_pressure;BME280_temperature;BME280_humidity;BME280_pressure;Samples;Min_cycle;Max_cycle;Signal;HPM_P1;HPM_P2
2022/10/01 00:02:03;;;;;;;21.03;19.47;;;7.40;99.90;;;;;;5030814;28;20234;-76
2022/10/01 00:04:29;;;;;;;30.47;27.87;;;7.30;99.90;;;;;;5030906;28;20205;-77
2022/10/01 00:06:58;;;;;;;31.23;28.83;;;7.30;99.90;;;;;;5032040;28;20183;-77
2022/10/01 00:09:25;;;;;;;21.93;20.27;;;7.30;99.90;;;;;;5031789;28;20171;-76
2022/10/01 00:11:52;;;;;;;15.93;14.63;;;7.30;99.90;;;;;;5030357;28;20179;-77
2022/10/01 00:14:18;;;;;;;15.77;14.27;;;7.30;99.90;;;;;;5030650;28;20175;-77
2022/10/01 00:16:44;;;;;;;16.33;14.80;;;7.40;99.90;;;;;;5031058;28;20274;-76
2022/10/01 00:19:16;;;;;;;15.73;14.07;;;7.40;99.90;;;;;;5031175;28;20293;-77
2022/10/01 00:21:43;;;;;;;16.47;14.83;;;7.30;99.90;;;;;;5029705;28;20231;-77
2022/10/01 00:24:12;;;;;;;14.63;13.27;;;7.30;99.90;;;;;;5029873;28;20198;-77
2022/10/01 00:26:38;;;;;;;16.20;14.80;;;7.20;99.90;;;;;;5029828;28;20671;-77
2022/10/01 00:29:10;;;;;;;14.63;13.33;;;7.20;99.90;;;;;;5029439;28;20666;-77
2022/10/01 00:31:36;;;;;;;16.33;15.03;;;7.20;99.90;;;;;;5029769;28;20183;-76
2022/10/01 00:34:03;;;;;;;13.20;11.80;;;7.20;99.90;;;;;;5030960;28;20179;-77
2022/10/01 00:36:30;;;;;;;14.57;13.17;;;7.30;99.90;;;;;;5029703;28;20417;-76
2022/10/01 00:39:00;;;;;;;14.07;12.77;;;7.30;99.90;;;;;;5029230;28;20179;-76
2022/10/01 00:41:32;;;;;;;16.80;15.33;;;7.20;99.90;;;;;;5030732;28;20214;-76
2022/10/01 00:44:01;;;;;;;16.13;14.77;;;7.20;99.90;;;;;;5030492;28;20199;-76
2022/10/01 00:46:31;;;;;;;15.03;11.67;;;7.20;99.90;;;;;;5029674;28;20233;-77
2022/10/01 00:49:03;;;;;;;12.43;11.20;;;7.20;99.90;;;;;;5030485;28;20261;-77
2022/10/01 00:51:33;;;;;;;15.47;12.57;;;7.20;99.90;;;;;;5029651;28;20186;-76
2022/10/01 00:54:07;;;;;;;13.67;10.73;;;7.10;99.90;;;;;;5030606;28;20686;-76
2022/10/01 00:56:33;;;;;;;12.60;11.40;;;7.20;99.90;;;;;;5029551;28;20222;-76
2022/10/01 00:59:00;;;;;;;13.13;11.93;;;7.10;99.90;;;;;;5029165;28;20179;-76
2022/10/01 01:01:26;;;;;;;12.30;11.27;;;7.10;99.90;;;;;;5029466;28;20214;-77
2022/10/01 01:03:52;;;;;;;17.17;12.73;;;7.10;99.90;;;;;;5030579;28;20218;-76
2022/10/01 01:06:18;;;;;;;13.87;12.57;;;7.00;99.90;;;;;;5032994;28;20223;-77
2022/10/01 01:08:44;;;;;;;13.40;12.10;;;7.00;99.90;;;;;;5034253;28;20651;-77
2022/10/01 01:11:31;;;;;;;14.23;13.03;;;6.90;99.90;;;;;;5034487;28;20197;-77
2022/10/01 01:14:09;;;;;;;12.10;11.03;;;6.90;99.90;;;;;;5033568;28;20714;-77
2022/10/01 01:16:41;;;;;;;14.43;13.03;;;6.80;99.90;;;;;;5034816;28;20187;-77
2022/10/01 01:19:32;;;;;;;14.80;12.37;;;6.80;99.90;;;;;;5033168;28;20304;-76
2022/10/01 01:22:03;;;;;;;15.17;13.63;;;6.80;99.90;;;;;;5033093;28;20306;-76
2022/10/01 01:24:31;;;;;;;13.93;12.80;;;6.80;99.90;;;;;;5034718;28;20189;-77
2022/10/01 01:27:01;;;;;;;14.27;12.57;;;6.70;99.90;;;;;;5034103;28;20257;-77
2022/10/01 01:29:56;;;;;;;13.63;12.30;;;6.70;99.90;;;;;;5034402;28;20671;-76
2022/10/01 01:32:29;;;;;;;14.57;12.10;;;6.60;99.90;;;;;;5033851;28;20199;-76
2022/10/01 01:35:01;;;;;;;14.53;12.50;;;6.60;99.90;;;;;;5033629;28;20194;-76
2022/10/01 01:37:31;;;;;;;13.50;12.17;;;6.60;99.90;;;;;;5033978;28;20221;-76
2022/10/01 01:40:00;;;;;;;13.67;12.37;;;6.60;99.90;;;;;;5034036;28;20187;-77
2022/10/01 01:42:31;;;;;;;14.30;12.77;;;6.60;99.90;;;;;;5032642;28;20230;-76
2022/10/01 01:45:00;;;;;;;13.07;11.93;;;6.50;99.90;;;;;;5032847;28;20186;-77
2022/10/01 01:47:31;;;;;;;14.87;13.50;;;6.50;99.90;;;;;;5032498;28;20224;-77
2022/10/01 01:49:58;;;;;;;17.60;16.33;;;6.50;99.90;;;;;;5034052;28;20191;-76
2022/10/01 01:52:24;;;;;;;24.27;22.67;;;6.40;99.90;;;;;;5032705;28;20624;-77
2022/10/01 01:54:51;;;;;;;28.20;25.63;;;6.40;99.90;;;;;;5033931;28;20187;-77
2022/10/01 01:57:18;;;;;;;29.97;27.93;;;6.50;99.90;;;;;;5032469;28;20225;-76
2022/10/01 01:59:44;;;;;;;32.20;30.03;;;6.50;99.90;;;;;;5033920;28;20179;-76
2022/10/01 02:02:25;;;;;;;27.77;25.90;;;6.50;99.90;;;;;;5033519;28;20214;-77
2022/10/01 02:05:02;;;;;;;24.03;22.27;;;6.50;99.90;;;;;;5033874;28;20179;-76
2022/10/01 02:07:51;;;;;;;28.20;26.20;;;6.40;99.90;;;;;;5033378;28;20186;-76
2022/10/01 02:10:43;;;;;;;31.23;29.27;;;6.40;99.90;;;;;;5032286;28;20183;-77
2022/10/01 02:13:17;;;;;;;31.10;29.10;;;6.40;99.90;;;;;;5032241;28;20203;-76
2022/10/01 02:16:03;;;;;;;27.60;25.80;;;6.40;99.90;;;;;;5031727;28;20262;-76
2022/10/01 02:18:42;;;;;;;26.03;24.20;;;6.30;99.90;;;;;;5031841;28;20199;-76
2022/10/01 02:21:19;;;;;;;27.83;25.97;;;6.30;99.90;;;;;;5032080;28;20298;-76
2022/10/01 02:24:03;;;;;;;22.43;20.60;;;6.30;99.90;;;;;;5033121;28;20214;-76
2022/10/01 02:26:31;;;;;;;17.10;15.80;;;6.30;99.90;;;;;;5033217;28;20240;-77
2022/10/01 02:29:02;;;;;;;16.17;14.63;;;6.30;99.90;;;;;;5032857;28;20175;-76
2022/10/01 02:31:29;;;;;;;15.63;14.30;;;6.40;99.90;;;;;;5033270;28;20194;-77
2022/10/01 02:33:58;;;;;;;12.83;11.67;;;6.50;99.90;;;;;;5033015;28;20268;-76
2022/10/01 02:36:28;;;;;;;12.60;11.60;;;6.50;99.90;;;;;;5032891;28;20245;-76
2022/10/01 02:38:56;;;;;;;14.53;13.20;;;6.50;99.90;;;;;;5031460;28;20183;-77
2022/10/01 02:41:26;;;;;;;13.07;11.97;;;6.50;99.90;;;;;;5032832;28;20806;-76
2022/10/01 02:43:59;;;;;;;14.27;12.97;;;6.50;99.90;;;;;;5032841;28;20564;-77
2022/10/01 02:46:44;;;;;;;20.33;18.77;;;6.50;99.90;;;;;;5031681;28;20187;-77
2022/10/01 02:49:12;;;;;;;25.17;23.47;;;6.60;99.90;;;;;;5032732;28;20195;-76
2022/10/01 02:51:59;;;;;;;33.17;30.77;;;6.60;99.90;;;;;;5032727;28;20179;-77
2022/10/01 02:54:41;;;;;;;37.17;34.87;;;6.50;99.90;;;;;;5031801;28;20183;-76
2022/10/01 02:57:21;;;;;;;36.73;34.57;;;6.60;99.90;;;;;;5032916;28;20221;-77
2022/10/01 02:59:52;;;;;;;32.77;30.57;;;6.60;99.90;;;;;;5032921;28;20183;-77
2022/10/01 03:02:19;;;;;;;34.93;32.83;;;6.60;99.90;;;;;;5032545;28;20222;-76
2022/10/01 03:04:46;;;;;;;34.37;32.23;;;6.60;99.90;;;;;;5031365;28;20179;-77
2022/10/01 03:07:14;;;;;;;16.33;14.70;;;6.60;99.90;;;;;;5032052;28;20200;-76
2022/10/01 03:09:40;;;;;;;13.23;11.93;;;6.60;99.90;;;;;;5031486;28;20194;-77
2022/10/01 03:12:09;;;;;;;14.63;13.60;;;6.50;99.90;;;;;;5032694;28;20230;-78
2022/10/01 03:14:38;;;;;;;14.63;13.40;;;6.60;99.90;;;;;;5032492;28;20671;-76
2022/10/01 03:17:05;;;;;;;15.80;14.50;;;6.60;99.90;;;;;;5031029;28;20756;-76
2022/10/01 03:19:31;;;;;;;15.80;14.33;;;6.50;99.90;;;;;;5032120;28;20179;-76
2022/10/01 03:21:57;;;;;;;15.13;13.93;;;6.60;99.90;;;;;;5030560;28;20702;-76
2022/10/01 03:24:23;;;;;;;15.53;14.33;;;6.60;99.90;;;;;;5030959;28;20211;-77
2022/10/01 03:26:49;;;;;;;14.87;13.77;;;6.60;99.90;;;;;;5030589;28;20189;-76
2022/10/01 03:29:15;;;;;;;15.70;14.20;;;6.60;99.90;;;;;;5031626;28;20180;-76
2022/10/01 03:31:41;;;;;;;14.33;13.23;;;6.60;99.90;;;;;;5031838;28;20626;-76
2022/10/01 03:34:07;;;;;;;14.13;13.03;;;6.60;99.90;;;;;;5032040;28;20210;-77
2022/10/01 03:36:33;;;;;;;13.93;12.83;;;6.60;99.90;;;;;;5031991;28;20199;-77
2022/10/01 03:38:59;;;;;;;14.90;13.50;;;6.60;99.90;;;;;;5030221;28;20175;-76
2022/10/01 03:41:25;;;;;;;14.13;12.83;;;6.60;99.90;;;;;;5031723;28;20581;-77
2022/10/01 03:43:51;;;;;;;16.80;15.50;;;6.60;99.90;;;;;;5031850;28;20199;-76
2022/10/01 03:46:17;;;;;;;16.63;15.43;;;6.50;99.90;;;;;;5031664;28;20187;-76
2022/10/01 03:48:42;;;;;;;17.80;16.50;;;6.50;99.90;;;;;;5031187;28;20183;-76
2022/10/01 03:51:08;;;;;;;16.73;15.63;;;6.50;99.90;;;;;;5030389;28;20187;-76
2022/10/01 03:53:34;;;;;;;15.17;13.90;;;6.60;99.90;;;;;;5031325;28;20291;-76
2022/10/01 03:56:00;;;;;;;14.37;12.47;;;6.60;99.90;;;;;;5030337;28;20202;-76
2022/10/01 03:58:26;;;;;;;18.40;17.17;;;6.60;99.90;;;;;;5031244;28;20183;-76
2022/10/01 04:00:54;;;;;;;16.23;14.37;;;6.60;99.90;;;;;;5030447;28;20308;-76
2022/10/01 04:03:20;;;;;;;15.30;14.10;;;6.60;99.90;;;;;;5031535;28;20199;-76
2022/10/01 04:05:46;;;;;;;15.47;13.73;;;6.60;99.90;;;;;;5031903;28;20179;-76
2022/10/01 04:08:12;;;;;;;16.53;15.03;;;6.60;99.90;;;;;;5030993;28;20175;-76
2022/10/01 04:10:38;;;;;;;14.63;13.53;;;6.60;99.90;;;;;;5031355;28;20183;-75
2022/10/01 04:13:05;;;;;;;15.60;14.40;;;6.60;99.90;;;;;;5030078;28;20203;-76
2022/10/01 04:15:34;;;;;;;16.70;15.50;;;6.60;99.90;;;;;;5030130;28;20544;-76
2022/10/01 04:18:05;;;;;;;15.67;14.47;;;6.60;99.90;;;;;;5029635;28;20257;-77
2022/10/01 04:20:32;;;;;;;14.37;12.97;;;6.60;99.90;;;;;;5029840;28;20202;-77
2022/10/01 04:22:58;;;;;;;16.83;15.13;;;6.60;99.90;;;;;;5059451;23;20226;-77
2022/10/01 04:25:24;;;;;;;15.70;14.20;;;6.60;99.90;;;;;;5053355;28;20242;-78
2022/10/01 04:27:54;;;;;;;16.77;15.17;;;6.60;99.90;;;;;;5054277;28;20179;-78
2022/10/01 04:30:20;;;;;;;15.67;14.43;;;6.50;99.90;;;;;;5053322;28;20208;-78
2022/10/01 04:32:46;;;;;;;14.97;13.77;;;6.60;99.90;;;;;;5054361;28;20236;-78
2022/10/01 04:35:12;;;;;;;15.47;12.83;;;6.50;99.90;;;;;;5054271;28;20413;-78
2022/10/01 04:37:38;;;;;;;13.50;12.43;;;6.50;99.90;;;;;;5054141;28;20184;-78
2022/10/01 04:40:04;;;;;;;15.50;14.20;;;6.50;99.90;;;;;;5053830;28;20333;-78
2022/10/01 04:42:30;;;;;;;15.37;14.17;;;6.50;99.90;;;;;;5052734;28;20241;-78
2022/10/01 04:44:56;;;;;;;24.90;23.03;;;6.50;99.90;;;;;;5053866;28;20179;-77
2022/10/01 04:47:22;;;;;;;26.37;24.60;;;6.50;99.90;;;;;;5052791;28;20189;-78
2022/10/01 04:49:48;;;;;;;21.20;19.60;;;6.50;99.90;;;;;;5052789;28;20666;-78
2022/10/01 04:52:14;;;;;;;23.03;21.37;;;6.40;99.90;;;;;;5067446;28;20189;-77
2022/10/01 04:54:40;;;;;;;17.33;16.03;;;6.40;99.90;;;;;;5060551;28;20186;-77
2022/10/01 04:57:06;;;;;;;21.03;19.47;;;6.40;99.90;;;;;;5059797;28;20182;-78
2022/10/01 04:59:32;;;;;;;24.97;23.27;;;6.40;99.90;;;;;;5050868;28;20178;-78
2022/10/01 05:01:58;;;;;;;29.43;27.50;;;6.40;99.90;;;;;;5052050;28;20206;-78
2022/10/01 05:04:25;;;;;;;24.27;22.47;;;6.30;99.90;;;;;;5050901;28;20221;-78
2022/10/01 05:06:51;;;;;;;30.63;28.50;;;6.30;99.90;;;;;;5059269;28;20722;-77
2022/10/01 05:09:16;;;;;;;31.67;29.57;;;6.30;99.90;;;;;;5052952;28;20212;-77
2022/10/01 05:11:42;;;;;;;36.20;33.73;;;6.30;99.90;;;;;;5052075;28;20183;-77
2022/10/01 05:14:08;;;;;;;37.80;35.23;;;6.30;99.90;;;;;;5053602;28;20646;-77
2022/10/01 05:16:34;;;;;;;29.53;27.53;;;6.20;99.90;;;;;;5052503;28;20175;-77
2022/10/01 05:18:59;;;;;;;31.87;29.70;;;6.30;99.90;;;;;;5053710;28;20186;-77
2022/10/01 05:21:25;;;;;;;28.53;26.60;;;6.40;99.90;;;;;;5052653;28;20214;-76
2022/10/01 05:23:51;;;;;;;26.07;24.07;;;6.40;99.90;;;;;;5053858;28;20687;-76
2022/10/01 05:26:17;;;;;;;25.53;23.63;;;6.40;99.90;;;;;;5050761;28;20277;-77
2022/10/01 05:28:43;;;;;;;23.20;21.60;;;6.50;99.90;;;;;;5051150;28;20233;-77
2022/10/01 05:31:12;;;;;;;26.83;24.80;;;6.50;99.90;;;;;;5051098;28;20182;-77
2022/10/01 05:33:39;;;;;;;32.20;30.03;;;6.60;99.90;;;;;;5052720;28;20218;-76
2022/10/01 05:36:05;;;;;;;34.33;32.17;;;6.60;99.90;;;;;;5052860;28;20205;-77
2022/10/01 05:38:35;;;;;;;24.70;22.97;;;6.70;99.90;;;;;;5052358;28;20186;-77
2022/10/01 05:41:03;;;;;;;27.73;25.97;;;6.70;99.90;;;;;;5053172;28;20288;-77
2022/10/01 05:43:30;;;;;;;35.63;33.53;;;6.80;99.90;;;;;;5052868;28;20195;-77
2022/10/01 05:46:02;;;;;;;39.57;37.07;;;6.80;99.90;;;;;;5052136;28;20209;-77
2022/10/01 05:48:28;;;;;;;26.77;25.00;;;6.90;99.90;;;;;;5051777;28;20393;-78
2022/10/01 05:50:54;;;;;;;18.77;17.47;;;6.90;99.90;;;;;;5052942;28;20178;-78
2022/10/01 05:53:20;;;;;;;17.87;16.67;;;7.00;99.90;;;;;;5055447;28;20270;-78
2022/10/01 05:55:46;;;;;;;19.97;18.13;;;7.00;99.90;;;;;;5055543;28;20444;-78
2022/10/01 05:58:13;;;;;;;18.90;15.20;;;7.10;99.90;;;;;;5055339;28;20196;-77
2022/10/01 06:00:40;;;;;;;11.27;10.33;;;7.10;99.90;;;;;;5055879;28;20206;-77
2022/10/01 06:03:07;;;;;;;11.27;10.27;;;7.10;99.90;;;;;;5055802;28;20704;-77
2022/10/01 06:05:34;;;;;;;13.00;11.80;;;7.10;99.90;;;;;;5056289;28;20174;-77
2022/10/01 06:08:03;;;;;;;12.63;11.60;;;7.20;99.90;;;;;;5056684;28;20227;-77
2022/10/01 06:10:29;;;;;;;15.53;11.63;;;7.20;99.90;;;;;;5056296;28;20174;-78
2022/10/01 06:13:04;;;;;;;11.93;10.80;;;7.30;99.90;;;;;;5056713;28;20194;-77
2022/10/01 06:15:33;;;;;;;12.03;10.93;;;7.40;99.90;;;;;;5054173;28;20260;-78
2022/10/01 06:18:04;;;;;;;10.10;8.97;;;7.40;99.90;;;;;;5053532;28;20174;-78
2022/10/01 06:20:30;;;;;;;10.63;9.70;;;7.40;99.90;;;;;;5054733;28;20251;-77
2022/10/01 06:22:57;;;;;;;11.47;10.37;;;7.50;99.90;;;;;;5054759;28;20698;-77
2022/10/01 06:25:24;;;;;;;12.33;9.80;;;7.50;99.90;;;;;;5054039;28;20198;-78
2022/10/01 06:27:56;;;;;;;11.83;10.80;;;7.50;99.90;;;;;;5063073;28;20171;-76
2022/10/01 06:30:32;;;;;;;14.30;13.03;;;7.50;99.90;;;;;;5063102;28;20232;-78
2022/10/01 06:33:09;;;;;;;15.50;14.00;;;7.60;99.90;;;;;;5067862;28;20201;-78
2022/10/01 06:35:40;;;;;;;17.37;14.20;;;7.60;99.90;;;;;;5054693;28;20185;-77
2022/10/01 06:38:07;;;;;;;15.67;14.03;;;7.60;99.90;;;;;;5053317;28;20202;-78
2022/10/01 06:40:32;;;;;;;17.43;15.73;;;7.60;99.90;;;;;;5062254;28;20214;-77
2022/10/01 06:42:58;;;;;;;23.20;21.03;;;7.60;99.90;;;;;;5065062;28;20217;-79
2022/10/01 06:45:25;;;;;;;38.97;36.37;;;7.60;99.90;;;;;;5058879;28;20561;-79
2022/10/01 06:47:54;;;;;;;75.33;71.07;;;7.70;99.90;;;;;;5055896;28;20202;-79
2022/10/01 06:50:20;;;;;;;38.97;36.47;;;7.60;99.90;;;;;;5055318;28;20539;-78
2022/10/01 06:52:49;;;;;;;48.40;45.37;;;7.70;99.90;;;;;;5054230;28;20211;-78
2022/10/01 06:55:20;;;;;;;46.67;43.67;;;7.70;99.90;;;;;;5060975;28;20170;-77
2022/10/01 06:57:47;;;;;;;44.10;41.43;;;7.80;99.90;;;;;;5071240;28;20178;-77
2022/10/01 07:00:13;;;;;;;40.53;37.77;;;7.80;99.90;;;;;;5066941;28;20556;-77
2022/10/01 07:02:39;;;;;;;37.87;35.23;;;7.90;99.90;;;;;;5054756;28;20217;-78
2022/10/01 07:05:06;;;;;;;37.70;35.23;;;7.90;99.90;;;;;;5056302;28;20651;-77
2022/10/01 07:07:34;;;;;;;30.73;28.27;;;8.00;99.90;;;;;;5054377;28;20267;-77
2022/10/01 07:10:01;;;;;;;48.20;45.20;;;8.10;99.90;;;;;;5055561;28;20199;-77
2022/10/01 07:12:27;;;;;;;40.27;37.23;;;8.10;99.90;;;;;;5056788;28;20198;-77
2022/10/01 07:14:54;;;;;;;38.23;35.57;;;8.20;99.90;;;;;;5056568;28;20178;-77
2022/10/01 07:17:20;;;;;;;31.73;29.67;;;8.30;99.90;;;;;;5052665;28;20187;-76
2022/10/01 07:19:46;;;;;;;39.73;37.03;;;8.30;99.90;;;;;;5053322;28;20238;-77
2022/10/01 07:22:12;;;;;;;43.93;41.17;;;8.40;99.90;;;;;;5051479;28;20305;-76
2022/10/01 07:24:38;;;;;;;49.20;45.77;;;8.50;99.90;;;;;;5051354;28;20197;-77
2022/10/01 07:27:04;;;;;;;24.50;22.60;;;8.50;99.90;;;;;;5052252;28;20174;-76
2022/10/01 07:29:31;;;;;;;33.90;31.07;;;8.60;99.90;;;;;;5052238;28;20178;-76
2022/10/01 07:31:58;;;;;;;64.37;60.57;;;8.60;99.90;;;;;;5051055;28;20182;-76
2022/10/01 07:34:25;;;;;;;60.73;57.07;;;8.60;99.90;;;;;;5052154;28;20194;-76
2022/10/01 07:36:53;;;;;;;59.23;55.20;;;8.60;99.90;;;;;;5052009;28;20182;-76
2022/10/01 07:39:19;;;;;;;67.67;63.57;;;8.70;99.90;;;;;;5051966;28;20517;-76
2022/10/01 07:41:45;;;;;;;35.50;32.93;;;8.70;99.90;;;;;;5051732;28;20217;-76
2022/10/01 07:44:11;;;;;;;18.33;16.50;;;8.70;99.90;;;;;;5052120;28;20589;-76
2022/10/01 07:46:38;;;;;;;18.37;16.43;;;8.80;99.90;;;;;;5052996;28;20237;-76
2022/10/01 07:49:04;;;;;;;12.87;11.67;;;8.80;99.90;;;;;;5050729;28;20187;-75
2022/10/01 07:51:30;;;;;;;14.67;12.77;;;8.70;99.90;;;;;;5052112;28;20183;-76
2022/10/01 07:53:57;;;;;;;17.07;15.57;;;8.70;99.90;;;;;;5051854;28;20202;-76
2022/10/01 07:56:25;;;;;;;21.40;19.60;;;8.70;99.90;;;;;;5050580;28;20185;-76
2022/10/01 07:58:58;;;;;;;22.70;20.77;;;8.80;99.90;;;;;;5050078;28;20178;-76
2022/10/01 08:01:24;;;;;;;28.53;26.60;;;8.90;99.90;;;;;;5051445;28;20214;-76
2022/10/01 08:03:51;;;;;;;22.33;20.27;;;8.90;99.90;;;;;;5050367;28;20195;-76
2022/10/01 08:06:18;;;;;;;20.33;18.67;;;8.90;99.90;;;;;;5050466;28;20223;-76
2022/10/01 08:08:45;;;;;;;17.50;15.97;;;8.90;99.90;;;;;;5053493;28;20206;-76
2022/10/01 08:11:13;;;;;;;18.63;16.83;;;9.00;99.90;;;;;;5055859;28;20183;-76
2022/10/01 08:13:40;;;;;;;21.53;19.67;;;8.90;99.90;;;;;;5050039;28;20209;-76
2022/10/01 08:16:08;;;;;;;34.93;32.60;;;9.00;99.90;;;;;;5051092;28;20186;-76
2022/10/01 08:18:36;;;;;;;96.50;91.27;;;9.00;99.90;;;;;;5051710;28;20173;-77
2022/10/01 08:21:02;;;;;;;49.63;46.30;;;9.00;99.90;;;;;;5050100;28;20281;-76
2022/10/01 08:23:32;;;;;;;44.10;40.73;;;9.00;99.90;;;;;;5051072;28;20210;-76
2022/10/01 08:26:05;;;;;;;67.57;63.00;;;9.10;99.90;;;;;;5050110;28;20174;-76
2022/10/01 08:28:35;;;;;;;13.73;12.43;;;9.10;99.90;;;;;;5049871;28;20190;-76
2022/10/01 08:31:08;;;;;;;89.83;84.73;;;9.10;99.90;;;;;;5051278;28;20209;-77
2022/10/01 08:33:36;;;;;;;68.20;64.13;;;9.20;99.90;;;;;;5049875;28;20230;-76
2022/10/01 08:36:07;;;;;;;66.13;62.43;;;9.20;99.90;;;;;;5051672;28;20272;-76
2022/10/01 08:38:34;;;;;;;81.63;76.80;;;9.30;99.90;;;;;;5049855;28;20182;-77
2022/10/01 08:41:16;;;;;;;72.60;68.70;;;9.30;99.90;;;;;;5050743;28;20582;-77
2022/10/01 08:43:42;;;;;;;43.63;40.93;;;9.40;99.90;;;;;;5049764;28;20726;-77
2022/10/01 08:46:18;;;;;;;32.73;30.80;;;9.50;99.90;;;;;;5051053;28;20249;-77
2022/10/01 08:49:05;;;;;;;26.17;24.37;;;9.60;99.90;;;;;;5050576;28;20185;-77
2022/10/01 08:51:56;;;;;;;23.90;22.40;;;9.70;99.90;;;;;;5065988;28;20235;-76
2022/10/01 08:54:33;;;;;;;26.93;25.17;;;9.80;99.90;;;;;;5050347;28;20273;-76
2022/10/01 08:57:01;;;;;;;23.80;22.37;;;9.90;99.90;;;;;;5049511;28;20224;-77
2022/10/01 08:59:45;;;;;;;11.80;10.97;;;9.90;99.90;;;;;;5049623;28;20206;-77
2022/10/01 09:02:27;;;;;;;11.60;10.50;;;10.10;99.90;;;;;;5050673;28;20217;-76
2022/10/01 09:05:11;;;;;;;12.57;11.53;;;10.10;99.90;;;;;;5049663;28;20188;-77
2022/10/01 09:07:59;;;;;;;12.37;11.47;;;10.20;99.90;;;;;;5049543;28;20185;-77
2022/10/01 09:10:34;;;;;;;67.10;63.53;;;10.20;99.90;;;;;;5050687;28;20174;-76
2022/10/01 09:13:27;;;;;;;143.87;136.23;;;10.30;99.90;;;;;;5049375;28;20300;-76
2022/10/01 09:16:16;;;;;;;126.27;119.77;;;10.30;99.90;;;;;;5049467;28;20327;-76
2022/10/01 09:19:05;;;;;;;114.00;108.07;;;10.30;99.90;;;;;;5046170;28;20202;-77
2022/10/01 09:21:46;;;;;;;57.77;54.47;;;10.30;99.90;;;;;;5050701;28;20340;-76
2022/10/01 09:24:37;;;;;;;58.10;54.87;;;10.30;99.90;;;;;;5050591;28;20220;-77
2022/10/01 09:27:18;;;;;;;51.60;48.87;;;10.40;99.90;;;;;;5053392;28;20186;-77
2022/10/01 09:30:09;;;;;;;18.97;17.60;;;10.50;99.90;;;;;;5053374;28;20182;-77
2022/10/01 09:33:02;;;;;;;12.03;11.13;;;10.50;99.90;;;;;;5054428;28;20571;-76
2022/10/01 09:35:36;;;;;;;9.20;8.50;;;10.50;99.90;;;;;;5053329;28;20206;-76
2022/10/01 09:38:20;;;;;;;8.87;7.97;;;10.50;99.90;;;;;;5054093;28;20662;-77
2022/10/01 09:40:57;;;;;;;10.00;9.10;;;10.70;99.90;;;;;;5053230;28;20264;-77
2022/10/01 09:43:33;;;;;;;11.00;10.10;;;10.70;99.90;;;;;;5054305;28;20213;-77
2022/10/01 09:45:59;;;;;;;15.93;14.83;;;10.70;99.90;;;;;;5054272;28;20269;-76
2022/10/01 09:48:31;;;;;;;29.03;27.30;;;10.70;99.90;;;;;;5053858;28;20174;-77
2022/10/01 09:51:10;;;;;;;26.50;24.97;;;10.70;99.90;;;;;;5052932;28;20604;-77
2022/10/01 09:53:40;;;;;;;19.33;18.07;;;10.70;99.90;;;;;;5053986;28;20194;-77
2022/10/01 09:56:20;;;;;;;12.23;11.53;;;10.70;99.90;;;;;;5052956;28;20669;-76
2022/10/01 09:58:52;;;;;;;19.87;18.60;;;10.70;99.90;;;;;;5052648;28;20590;-76
2022/10/01 10:02:06;;;;;;;22.20;20.90;;;10.70;99.90;;;;;;5053084;28;20625;-76
2022/10/01 10:04:32;;;;;;;11.63;10.83;;;10.60;99.90;;;;;;5050813;28;20227;-76
2022/10/01 10:07:01;;;;;;;13.60;12.70;;;10.70;99.90;;;;;;5052036;28;20189;-76
2022/10/01 10:09:34;;;;;;;10.30;9.50;;;10.60;99.90;;;;;;5053553;28;20278;-76
2022/10/01 10:12:01;;;;;;;9.10;8.40;;;10.60;99.90;;;;;;5052624;28;20204;-76
2022/10/01 10:14:36;;;;;;;10.90;10.10;;;10.70;99.90;;;;;;5052413;28;20182;-76
2022/10/01 10:17:10;;;;;;;23.07;21.77;;;10.60;99.90;;;;;;5051959;28;20185;-76
2022/10/01 10:19:37;;;;;;;73.60;69.63;;;10.60;99.90;;;;;;5053288;28;20200;-76
2022/10/01 10:22:12;;;;;;;68.93;65.50;;;10.70;99.90;;;;;;5051805;28;20213;-76
2022/10/01 10:24:38;;;;;;;93.27;88.40;;;10.70;99.90;;;;;;5072911;22;20229;-77
2022/10/01 10:27:18;;;;;;;97.30;92.50;;;10.60;99.90;;;;;;5051271;28;20193;-76
2022/10/01 10:29:44;;;;;;;86.23;81.97;;;10.60;99.90;;;;;;5053418;28;20179;-76
2022/10/01 10:32:28;;;;;;;75.33;71.40;;;10.60;99.90;;;;;;5053775;28;20700;-75
2022/10/01 10:35:09;;;;;;;17.63;16.73;;;10.60;99.90;;;;;;5033345;28;20217;-75
2022/10/01 10:37:45;;;;;;;17.57;16.03;;;10.60;99.90;;;;;;5030640;28;20220;-76
2022/10/01 10:40:21;;;;;;;8.53;7.83;;;10.60;99.90;;;;;;5033526;28;20191;-76
2022/10/01 10:42:50;;;;;;;8.10;7.70;;;10.50;99.90;;;;;;5031988;28;20591;-76
2022/10/01 10:45:20;;;;;;;8.37;7.90;;;10.60;99.90;;;;;;5033167;28;20262;-76
2022/10/01 10:47:49;;;;;;;9.53;8.93;;;10.70;99.90;;;;;;5032663;28;20175;-76
2022/10/01 10:50:37;;;;;;;9.27;8.57;;;10.70;99.90;;;;;;5032979;28;20179;-76
2022/10/01 10:53:24;;;;;;;10.50;9.90;;;10.80;99.90;;;;;;5032898;28;20206;-76
2022/10/01 10:56:04;;;;;;;12.03;11.17;;;10.80;99.90;;;;;;5031803;28;20175;-76
2022/10/01 10:58:33;;;;;;;11.90;11.00;;;10.90;99.90;;;;;;5032550;28;20643;-76
2022/10/01 11:01:08;;;;;;;14.63;13.73;;;10.90;99.90;;;;;;5032772;28;20769;-76
2022/10/01 11:03:37;;;;;;;11.50;10.70;;;11.00;99.90;;;;;;5031610;28;20206;-76
2022/10/01 11:06:11;;;;;;;11.10;10.33;;;11.10;99.90;;;;;;5032687;28;20212;-76
2022/10/01 11:08:38;;;;;;;10.17;9.27;;;11.20;99.90;;;;;;5031189;28;20604;-76
2022/10/01 11:11:15;;;;;;;9.83;8.93;;;11.40;99.90;;;;;;5031508;28;20202;-76
2022/10/01 11:14:10;;;;;;;13.30;12.00;;;11.50;99.90;;;;;;5031455;28;20640;-76
2022/10/01 11:17:03;;;;;;;15.20;13.60;;;11.60;99.90;;;;;;5032724;28;20685;-76
2022/10/01 11:20:07;;;;;;;57.53;52.93;;;11.80;99.90;;;;;;5031202;28;20586;-77
2022/10/01 11:22:33;;;;;;;9.50;8.60;;;11.90;99.90;;;;;;5030952;28;20214;-76
2022/10/01 11:25:12;;;;;;;12.33;11.40;;;11.80;99.90;;;;;;5032061;28;20270;-76
2022/10/01 11:27:59;;;;;;;13.80;12.77;;;11.70;99.90;;;;;;5030715;28;20175;-76
2022/10/01 11:30:31;;;;;;;6.90;6.50;;;11.70;99.90;;;;;;5032297;28;20183;-76
2022/10/01 11:33:09;;;;;;;7.30;6.77;;;11.60;99.90;;;;;;5032200;28;20211;-76
2022/10/01 11:35:55;;;;;;;5.33;5.13;;;11.60;99.90;;;;;;5031077;28;20200;-76
2022/10/01 11:38:30;;;;;;;7.40;6.80;;;11.50;99.90;;;;;;5024351;28;20194;-76
2022/10/01 11:41:11;;;;;;;6.70;6.40;;;11.50;99.90;;;;;;5030805;28;20206;-77
2022/10/01 11:43:41;;;;;;;9.00;8.60;;;11.50;99.90;;;;;;5032041;28;20625;-75
2022/10/01 11:46:18;;;;;;;7.50;7.07;;;11.50;99.90;;;;;;5032022;28;20210;-76
2022/10/01 11:48:49;;;;;;;5.53;5.27;;;11.60;99.90;;;;;;5030184;28;20584;-76
2022/10/01 11:51:20;;;;;;;5.87;5.67;;;11.60;99.90;;;;;;5032055;28;20214;-76
2022/10/01 11:54:00;;;;;;;4.97;4.67;;;11.50;99.90;;;;;;5031761;28;20292;-77
2022/10/01 11:59:35;;;;;;;5.80;5.40;;;11.60;99.90;;;;;;5031790;28;20194;-76
2022/10/01 12:02:34;;;;;;;7.13;6.40;;;11.60;99.90;;;;;;5030504;28;20706;-77
2022/10/01 12:05:09;;;;;;;7.67;6.43;;;11.70;99.90;;;;;;5030242;28;20194;-76
2022/10/01 12:07:54;;;;;;;8.33;7.53;;;11.70;99.90;;;;;;5029951;28;20271;-77
2022/10/01 12:10:36;;;;;;;5.73;5.43;;;11.70;99.90;;;;;;5031769;28;20673;-76
2022/10/01 12:13:26;;;;;;;5.83;5.53;;;11.80;99.90;;;;;;5030323;28;20289;-76
2022/10/01 12:16:19;;;;;;;5.80;5.30;;;11.80;99.90;;;;;;5031149;28;20179;-77
2022/10/01 12:18:57;;;;;;;4.80;4.40;;;11.80;99.90;;;;;;5029690;28;20183;-77
2022/10/01 12:21:32;;;;;;;6.97;6.47;;;11.80;99.90;;;;;;5030013;28;20210;-76
2022/10/01 12:24:06;;;;;;;6.03;5.43;;;11.90;99.90;;;;;;5031088;28;20214;-76
2022/10/01 12:26:59;;;;;;;6.53;5.83;;;11.90;99.90;;;;;;5031287;28;20186;-76
2022/10/01 12:29:31;;;;;;;5.30;5.00;;;11.90;99.90;;;;;;5031099;28;20195;-76
2022/10/01 12:32:08;;;;;;;4.90;4.50;;;11.90;99.90;;;;;;5031053;28;20269;-76
2022/10/01 12:35:05;;;;;;;4.57;4.30;;;12.00;99.90;;;;;;5031034;28;20206;-76
2022/10/01 12:37:53;;;;;;;5.20;4.90;;;12.10;99.90;;;;;;5030685;28;20238;-76
2022/10/01 12:40:34;;;;;;;6.17;5.30;;;12.20;99.90;;;;;;5030061;28;20593;-77
2022/10/01 12:43:51;;;;;;;9.93;9.53;;;12.20;99.90;;;;;;5030877;28;20230;-76
2022/10/01 12:47:02;;;;;;;5.17;4.87;;;12.40;99.90;;;;;;5014735;28;20661;-76
2022/10/01 12:49:40;;;;;;;5.40;5.20;;;12.50;99.90;;;;;;5014667;28;20230;-76
2022/10/01 12:52:22;;;;;;;4.87;4.63;;;12.70;99.90;;;;;;5029633;28;20265;-76
2022/10/01 12:55:12;;;;;;;30.30;28.80;;;12.90;99.90;;;;;;5029846;28;20289;-76
2022/10/01 12:57:47;;;;;;;19.80;18.77;;;13.10;99.90;;;;;;5030772;28;20217;-76
2022/10/01 13:00:19;;;;;;;16.77;16.07;;;13.30;99.90;;;;;;5031114;28;20561;-76
2022/10/01 13:03:16;;;;;;;8.67;8.27;;;13.40;99.90;;;;;;5034912;28;20210;-76
2022/10/01 13:05:54;;;;;;;43.53;41.47;;;13.40;99.90;;;;;;5035013;28;20555;-76